Time;durP1;ratioP1;P1;durP2;ratioP2;P2;SDS_P1;SDS_P2;PMS_P1;PMS_P2;Temp;Humidity;BMP_temperature;BMP_pressure;BME280_temperature;BME280_humidity;BME280_pressure;Samples;Min_cycle;Max_cycle;Signal;HPM_P1;HPM_P2
2023/09/12 00:02:14;;;;;;;24.00;20.13;;;;;;;;;;5036264;28;20201;-71
2023/09/12 00:04:41;;;;;;;25.03;20.33;;;;;;;;;;5053751;28;20187;-71
2023/09/12 00:07:08;;;;;;;25.00;20.00;;;;;;;;;;5053331;28;20226;-70
2023/09/12 00:09:34;;;;;;;27.13;20.93;;;;;;;;;;5035955;28;20248;-71
2023/09/12 00:12:02;;;;;;;24.27;20.40;;;;;;;;;;5053135;28;20207;-71
2023/09/12 00:14:28;;;;;;;24.87;18.87;;;;;;;;;;5053204;28;20245;-71
2023/09/12 00:16:55;;;;;;;23.57;19.47;;;;;;;;;;5052995;28;20190;-71
2023/09/12 00:19:22;;;;;;;24.93;18.10;;;;;;;;;;5053580;28;20179;-71
2023/09/12 00:21:49;;;;;;;23.67;18.87;;;;;;;;;;5053076;28;20182;-71
2023/09/12 00:28:15;;;;;;;22.60;18.00;;;;;;;;;;5053002;28;20194;-71
2023/09/12 00:34:41;;;;;;;29.90;21.60;;;;;;;;;;5053036;28;20186;-71
2023/09/12 00:37:08;;;;;;;27.30;20.43;;;;;;;;;;5036162;28;20187;-71
2023/09/12 00:39:35;;;;;;;23.87;19.50;;;;;;;;;;5051776;28;20199;-71
2023/09/12 00:42:02;;;;;;;27.47;20.67;;;;;;;;;;5018982;28;20194;-71
2023/09/12 00:44:28;;;;;;;24.67;19.33;;;;;;;;;;5034978;28;20237;-71
2023/09/12 00:50:48;;;;;;;23.07;19.03;;;;;;;;;;5056676;28;20182;-71
2023/09/12 00:53:15;;;;;;;23.90;19.80;;;;;;;;;;5039116;28;20202;-71
2023/09/12 00:59:42;;;;;;;25.40;18.47;;;;;;;;;;5056289;28;20234;-71
2023/09/12 01:02:09;;;;;;;24.90;19.83;;;;;;;;;;5038815;28;20289;-71
2023/09/12 01:04:36;;;;;;;25.50;19.93;;;;;;;;;;5022410;28;20237;-72
2023/09/12 01:07:03;;;;;;;23.70;20.43;;;;;;;;;;5021998;28;20229;-71
2023/09/12 01:09:30;;;;;;;24.20;19.17;;;;;;;;;;5038435;28;20696;-71
2023/09/12 01:47:43;;;;;;;20.97;16.97;;;;;;;;;;5075399;28;20213;-71
2023/09/12 01:54:10;;;;;;;27.33;19.47;;;;;;;;;;5075584;28;20185;-71
2023/09/12 01:56:37;;;;;;;19.97;17.80;;;;;;;;;;5073719;28;20583;-71
2023/09/12 01:59:04;;;;;;;23.53;19.03;;;;;;;;;;5040965;28;20218;-71
2023/09/12 02:01:30;;;;;;;22.30;18.57;;;;;;;;;;5041076;28;20533;-71
2023/09/12 02:03:58;;;;;;;24.37;18.70;;;;;;;;;;5057588;28;20190;-71
2023/09/12 02:06:24;;;;;;;23.73;19.63;;;;;;;;;;5040566;28;20194;-71
2023/09/12 02:08:52;;;;;;;23.83;19.47;;;;;;;;;;5057206;28;20240;-71
2023/09/12 02:11:18;;;;;;;24.30;19.13;;;;;;;;;;5057157;28;20194;-71
2023/09/12 02:18:02;;;;;;;23.03;18.60;;;;;;;;;;5074839;28;20516;-71
2023/09/12 02:20:48;;;;;;;24.13;19.27;;;;;;;;;;5045853;28;20238;-70
2023/09/12 02:23:15;;;;;;;23.07;19.40;;;;;;;;;;5057782;28;20186;-71
2023/09/12 02:25:59;;;;;;;26.47;20.93;;;;;;;;;;5042555;28;20169;-70
2023/09/12 02:28:26;;;;;;;27.23;21.20;;;;;;;;;;5057868;28;20573;-70
2023/09/12 02:30:53;;;;;;;27.27;22.00;;;;;;;;;;5057353;28;20220;-71
2023/09/12 02:33:20;;;;;;;24.97;19.60;;;;;;;;;;5075186;28;20235;-70
2023/09/12 02:35:47;;;;;;;20.93;17.90;;;;;;;;;;5040235;28;20217;-71
2023/09/12 02:38:14;;;;;;;21.13;17.93;;;;;;;;;;5074282;28;20700;-71
2023/09/12 02:40:40;;;;;;;22.20;18.87;;;;;;;;;;5056670;28;20194;-71
2023/09/12 02:43:07;;;;;;;24.47;18.40;;;;;;;;;;5057416;28;20542;-70
2023/09/12 02:49:33;;;;;;;25.63;19.00;;;;;;;;;;5074314;28;20276;-70
2023/09/12 02:52:18;;;;;;;24.23;19.60;;;;;;;;;;5056293;28;20170;-70
2023/09/12 02:54:44;;;;;;;28.17;19.90;;;;;;;;;;5056594;28;20529;-70
2023/09/12 02:57:11;;;;;;;28.33;22.40;;;;;;;;;;5056319;28;20201;-70
2023/09/12 02:59:38;;;;;;;25.97;21.13;;;;;;;;;;5023406;28;20284;-70
2023/09/12 03:02:05;;;;;;;28.27;21.53;;;;;;;;;;5074236;28;20216;-70
2023/09/12 03:04:34;;;;;;;27.97;20.63;;;;;;;;;;5056234;28;20187;-70
2023/09/12 03:07:01;;;;;;;25.27;20.00;;;;;;;;;;5056102;28;20221;-71
2023/09/12 03:09:28;;;;;;;23.87;19.33;;;;;;;;;;5055757;28;20202;-70
2023/09/12 03:11:55;;;;;;;24.87;19.03;;;;;;;;;;5056191;28;20676;-71
2023/09/12 03:14:22;;;;;;;22.57;17.23;;;;;;;;;;5073604;28;20660;-70
2023/09/12 03:16:48;;;;;;;21.23;17.43;;;;;;;;;;5072658;28;20200;-70
2023/09/12 03:19:15;;;;;;;22.50;18.70;;;;;;;;;;5056461;28;20280;-71
2023/09/12 03:21:42;;;;;;;24.33;19.50;;;;;;;;;;5039364;28;20293;-74
2023/09/12 03:24:09;;;;;;;25.20;20.53;;;;;;;;;;5056220;28;20181;-70
2023/09/12 03:26:36;;;;;;;22.60;17.80;;;;;;;;;;5071792;28;20316;-71
2023/09/12 03:29:03;;;;;;;21.07;16.57;;;;;;;;;;5056080;28;20210;-74
2023/09/12 03:31:31;;;;;;;24.07;18.50;;;;;;;;;;5039863;28;20186;-73
2023/09/12 03:33:58;;;;;;;21.87;18.07;;;;;;;;;;5040077;28;20208;-74
2023/09/12 03:40:24;;;;;;;22.70;17.90;;;;;;;;;;5074122;28;20215;-76
2023/09/12 03:42:52;;;;;;;23.10;19.47;;;;;;;;;;5056491;28;20194;-76
2023/09/12 03:45:19;;;;;;;21.43;17.27;;;;;;;;;;5039629;28;20533;-74
2023/09/12 03:47:46;;;;;;;20.37;17.00;;;;;;;;;;5073805;28;20182;-74
2023/09/12 03:54:14;;;;;;;21.57;17.57;;;;;;;;;;5073891;28;20225;-72
2023/09/12 03:56:41;;;;;;;21.40;17.40;;;;;;;;;;5056408;28;20567;-73
2023/09/12 04:03:05;;;;;;;23.40;19.23;;;;;;;;;;5073677;28;20683;-74
2023/09/12 04:09:32;;;;;;;32.20;19.00;;;;;;;;;;5073446;28;20283;-72
2023/09/12 04:11:59;;;;;;;32.13;18.30;;;;;;;;;;5073759;28;20210;-73
2023/09/12 04:18:26;;;;;;;30.00;17.97;;;;;;;;;;5073963;28;20587;-72
2023/09/12 04:20:57;;;;;;;29.00;17.33;;;;;;;;;;5056505;28;20193;-73
2023/09/12 04:23:27;;;;;;;27.43;18.07;;;;;;;;;;5059681;28;20228;-73
2023/09/12 04:29:59;;;;;;;25.07;15.13;;;;;;;;;;5077697;28;20606;-74
2023/09/12 04:32:27;;;;;;;23.40;15.20;;;;;;;;;;5059935;28;20611;-74
2023/09/12 04:34:55;;;;;;;24.83;16.60;;;;;;;;;;5059590;28;20194;-72
2023/09/12 04:37:24;;;;;;;24.53;15.87;;;;;;;;;;5060248;28;20197;-72
2023/09/12 04:39:51;;;;;;;25.30;16.77;;;;;;;;;;5060141;28;20191;-74
2023/09/12 04:46:19;;;;;;;24.00;15.73;;;;;;;;;;5077061;28;20554;-71
2023/09/12 04:48:47;;;;;;;30.83;20.33;;;;;;;;;;5075826;28;20209;-70
2023/09/12 04:55:14;;;;;;;23.20;16.77;;;;;;;;;;5077268;28;20237;-71
2023/09/12 04:57:41;;;;;;;26.37;17.03;;;;;;;;;;5059741;28;20182;-70
2023/09/12 05:00:10;;;;;;;31.73;17.53;;;;;;;;;;5059507;28;20182;-71
2023/09/12 05:02:38;;;;;;;25.33;16.87;;;;;;;;;;5043748;28;20567;-71
2023/09/12 05:05:05;;;;;;;26.43;16.93;;;;;;;;;;5058780;28;20243;-71
2023/09/12 05:07:32;;;;;;;29.53;16.37;;;;;;;;;;5042850;28;20608;-71
2023/09/12 05:09:59;;;;;;;28.43;17.03;;;;;;;;;;5077294;28;20226;-71
2023/09/12 05:12:26;;;;;;;42.13;23.73;;;;;;;;;;5026776;28;20209;-71
2023/09/12 05:14:53;;;;;;;29.47;20.80;;;;;;;;;;5058966;28;20198;-71
2023/09/12 05:21:21;;;;;;;33.30;20.60;;;;;;;;;;5076386;28;20161;-71
2023/09/12 05:23:48;;;;;;;46.07;22.97;;;;;;;;;;5042111;28;20198;-71
2023/09/12 05:30:10;;;;;;;35.33;21.23;;;;;;;;;;5076552;28;20337;-73
2023/09/12 05:41:08;;;;;;;29.90;18.80;;;;;;;;;;4973677;28;20192;-72
2023/09/12 05:43:36;;;;;;;25.70;20.33;;;;;;;;;;4959257;28;20197;-72
2023/09/12 05:46:03;;;;;;;27.70;19.97;;;;;;;;;;4958817;28;20269;-72
2023/09/12 05:52:30;;;;;;;52.13;23.70;;;;;;;;;;4974852;28;20220;-72
2023/09/12 05:54:57;;;;;;;36.20;23.40;;;;;;;;;;4958617;28;20280;-73
2023/09/12 05:57:26;;;;;;;35.60;25.27;;;;;;;;;;4958573;28;20197;-71
2023/09/12 06:03:56;;;;;;;40.00;25.53;;;;;;;;;;4975064;28;20265;-72
2023/09/12 06:06:24;;;;;;;39.43;26.40;;;;;;;;;;4967039;28;20236;-72
2023/09/12 06:08:53;;;;;;;32.33;25.17;;;;;;;;;;4942859;28;20233;-71
2023/09/12 06:11:24;;;;;;;33.83;23.43;;;;;;;;;;5066027;28;20196;-71
2023/09/12 06:13:55;;;;;;;31.83;24.77;;;;;;;;;;5025401;28;20239;-73
2023/09/12 06:16:26;;;;;;;39.73;24.93;;;;;;;;;;5041289;28;20201;-72
2023/09/12 06:18:54;;;;;;;32.93;24.73;;;;;;;;;;5075159;28;20182;-72
2023/09/12 06:21:24;;;;;;;32.63;24.73;;;;;;;;;;5041820;28;20230;-71
2023/09/12 06:24:12;;;;;;;30.63;25.13;;;;;;;;;;5041332;28;20193;-73
2023/09/12 06:26:40;;;;;;;38.63;25.50;;;;;;;;;;5057562;28;20243;-73
2023/09/12 06:33:09;;;;;;;30.67;23.37;;;;;;;;;;5074892;28;20154;-74
2023/09/12 06:35:36;;;;;;;29.77;23.13;;;;;;;;;;5041616;28;20621;-74
2023/09/12 06:42:08;;;;;;;28.57;23.20;;;;;;;;;;5075189;28;20145;-73
2023/09/12 06:48:36;;;;;;;33.50;21.23;;;;;;;;;;5074758;28;20267;-73
2023/09/12 06:51:08;;;;;;;29.07;21.47;;;;;;;;;;5074927;28;20178;-69
2023/09/12 06:57:39;;;;;;;24.63;16.63;;;;;;;;;;5075100;28;20157;-74
2023/09/12 07:00:07;;;;;;;18.30;15.47;;;;;;;;;;5057686;28;20239;-72
2023/09/12 07:06:28;;;;;;;17.30;11.40;;;;;;;;;;5074328;28;20181;-72
2023/09/12 07:09:08;;;;;;;13.50;10.27;;;;;;;;;;5056575;28;20267;-72
2023/09/12 07:11:35;;;;;;;11.87;9.00;;;;;;;;;;5056722;28;20231;-72
2023/09/12 07:14:03;;;;;;;10.93;8.90;;;;;;;;;;5074601;28;20178;-71
2023/09/12 07:16:31;;;;;;;12.33;8.80;;;;;;;;;;5056924;28;20190;-70
2023/09/12 07:22:52;;;;;;;10.40;8.77;;;;;;;;;;5074184;28;20169;-70
2023/09/12 07:25:20;;;;;;;12.77;8.10;;;;;;;;;;5073969;28;20205;-72
2023/09/12 07:31:41;;;;;;;9.90;7.60;;;;;;;;;;5074053;28;20161;-72
2023/09/12 07:34:11;;;;;;;10.57;7.70;;;;;;;;;;5039848;28;20178;-70
2023/09/12 07:36:39;;;;;;;9.77;7.33;;;;;;;;;;5052734;28;20210;-70
2023/09/12 07:43:07;;;;;;;10.93;7.40;;;;;;;;;;5053710;28;20575;-70
2023/09/12 07:45:36;;;;;;;9.37;7.47;;;;;;;;;;5036145;28;20202;-72
2023/09/12 07:48:21;;;;;;;9.60;7.50;;;;;;;;;;5053121;28;20700;-72
2023/09/12 07:50:49;;;;;;;8.97;7.20;;;;;;;;;;5052421;28;20541;-71
2023/09/12 07:57:09;;;;;;;11.67;7.50;;;;;;;;;;5056952;28;20697;-71
2023/09/12 07:59:37;;;;;;;8.00;7.23;;;;;;;;;;5081870;28;20205;-71
2023/09/12 08:02:04;;;;;;;8.80;7.27;;;;;;;;;;5098015;28;20184;-71
2023/09/12 08:04:33;;;;;;;8.60;7.20;;;;;;;;;;5080618;28;20264;-71
2023/09/12 08:07:00;;;;;;;10.97;7.20;;;;;;;;;;5098597;28;20181;-69
2023/09/12 08:13:30;;;;;;;9.03;7.30;;;;;;;;;;5098165;28;20184;-72
2023/09/12 08:15:57;;;;;;;12.87;7.50;;;;;;;;;;5096841;28;20608;-71
2023/09/12 08:22:18;;;;;;;16.20;7.97;;;;;;;;;;5077390;28;20641;-70
2023/09/12 08:24:46;;;;;;;11.60;7.40;;;;;;;;;;5060333;28;20239;-73
2023/09/12 08:27:13;;;;;;;9.90;7.33;;;;;;;;;;5076309;28;20178;-73
2023/09/12 08:29:43;;;;;;;8.80;7.20;;;;;;;;;;5076421;28;20226;-71
2023/09/12 08:32:13;;;;;;;9.77;7.43;;;;;;;;;;5077416;28;20731;-71
2023/09/12 08:38:43;;;;;;;11.77;7.37;;;;;;;;;;5077111;28;20169;-71
2023/09/12 08:41:10;;;;;;;11.10;8.10;;;;;;;;;;5077383;28;20640;-72
2023/09/12 08:43:37;;;;;;;10.90;7.73;;;;;;;;;;5076105;28;20186;-72
2023/09/12 08:46:04;;;;;;;9.50;7.43;;;;;;;;;;5075512;28;20217;-73
2023/09/12 08:48:31;;;;;;;10.93;7.13;;;;;;;;;;5042384;28;20510;-72
2023/09/12 08:50:59;;;;;;;10.80;7.70;;;;;;;;;;5076596;28;20189;-70
2023/09/12 08:57:25;;;;;;;9.90;7.20;;;;;;;;;;5076511;28;20215;-71
2023/09/12 09:03:51;;;;;;;10.47;7.23;;;;;;;;;;5056473;28;20664;-72
2023/09/12 09:06:18;;;;;;;9.47;7.20;;;;;;;;;;5038794;28;20499;-71
2023/09/12 09:09:04;;;;;;;8.00;7.23;;;;;;;;;;5040582;28;20233;-71
2023/09/12 09:15:32;;;;;;;11.33;6.80;;;;;;;;;;5056358;28;20598;-73
2023/09/12 09:18:02;;;;;;;8.57;6.90;;;;;;;;;;5021936;28;20282;-71
2023/09/12 09:24:23;;;;;;;9.53;7.07;;;;;;;;;;5056507;28;20156;-72
2023/09/12 09:30:45;;;;;;;8.30;6.83;;;;;;;;;;5055985;28;20661;-70
2023/09/12 09:33:13;;;;;;;11.13;7.20;;;;;;;;;;5022529;28;20194;-72
2023/09/12 09:39:40;;;;;;;8.37;6.60;;;;;;;;;;5056501;28;20150;-72
2023/09/12 09:42:09;;;;;;;8.87;6.50;;;;;;;;;;5022307;28;20223;-76
2023/09/12 09:48:32;;;;;;;9.00;6.63;;;;;;;;;;5056253;28;20204;-72
2023/09/12 09:54:56;;;;;;;8.27;6.87;;;;;;;;;;5056170;28;20161;-74
2023/09/12 09:57:26;;;;;;;7.97;6.60;;;;;;;;;;5031824;28;20541;-76
2023/09/12 10:04:00;;;;;;;6.97;6.37;;;;;;;;;;5056026;28;20149;-73
2023/09/12 10:06:28;;;;;;;6.90;6.20;;;;;;;;;;5038691;28;20237;-70
2023/09/12 10:08:56;;;;;;;8.57;6.50;;;;;;;;;;5037689;28;20229;-73
2023/09/12 10:11:24;;;;;;;6.57;5.90;;;;;;;;;;5021561;28;20190;-73
2023/09/12 10:13:55;;;;;;;7.03;6.33;;;;;;;;;;5038169;28;20535;-73
2023/09/12 10:16:24;;;;;;;6.60;6.00;;;;;;;;;;5021436;28;20191;-70
2023/09/12 10:18:57;;;;;;;7.07;6.33;;;;;;;;;;5037083;28;20191;-70
2023/09/12 10:21:27;;;;;;;8.30;6.50;;;;;;;;;;5047421;28;20522;-74
2023/09/12 10:23:55;;;;;;;9.03;6.43;;;;;;;;;;5037293;28;20182;-69
2023/09/12 10:26:23;;;;;;;6.70;6.10;;;;;;;;;;5037617;28;20215;-70
2023/09/12 10:29:07;;;;;;;6.73;6.07;;;;;;;;;;5023183;28;20630;-71
2023/09/12 10:35:34;;;;;;;7.60;5.90;;;;;;;;;;5054925;28;20580;-73
2023/09/12 10:42:03;;;;;;;6.70;6.00;;;;;;;;;;5074828;28;20525;-69
2023/09/12 10:48:31;;;;;;;21.73;7.27;;;;;;;;;;5074510;28;20191;-69
2023/09/12 10:50:58;;;;;;;6.80;6.20;;;;;;;;;;5057422;28;20202;-71
2023/09/12 10:53:26;;;;;;;12.23;6.43;;;;;;;;;;5040228;28;20577;-71
2023/09/12 10:56:08;;;;;;;8.77;6.40;;;;;;;;;;5057004;28;20243;-70
2023/09/12 10:58:53;;;;;;;8.00;6.07;;;;;;;;;;5074633;28;20196;-71
2023/09/12 11:01:27;;;;;;;7.63;6.37;;;;;;;;;;5056642;28;20186;-70
2023/09/12 11:03:56;;;;;;;6.87;6.13;;;;;;;;;;5040936;28;20182;-71
2023/09/12 11:06:29;;;;;;;6.97;6.30;;;;;;;;;;5040388;28;20578;-70
2023/09/12 11:09:17;;;;;;;7.50;6.43;;;;;;;;;;5057053;28;20233;-70
2023/09/12 11:15:39;;;;;;;7.87;6.83;;;;;;;;;;5074521;28;20197;-69
2023/09/12 11:22:06;;;;;;;7.40;6.70;;;;;;;;;;5074181;28;20154;-68
2023/09/12 11:24:45;;;;;;;7.83;7.03;;;;;;;;;;5040512;28;20186;-70
2023/09/12 11:27:12;;;;;;;8.60;6.87;;;;;;;;;;5039874;28;20221;-70
2023/09/12 11:29:40;;;;;;;7.87;6.93;;;;;;;;;;5056593;28;20197;-70
2023/09/12 11:32:07;;;;;;;8.13;7.13;;;;;;;;;;5056253;28;20389;-70
2023/09/12 11:34:38;;;;;;;8.73;7.40;;;;;;;;;;5039379;28;20224;-70
2023/09/12 11:37:05;;;;;;;8.87;7.50;;;;;;;;;;5074488;28;20186;-70
2023/09/12 11:39:35;;;;;;;8.33;7.43;;;;;;;;;;5039959;28;20633;-70
2023/09/12 11:42:19;;;;;;;8.43;7.53;;;;;;;;;;5074244;28;20238;-70
2023/09/12 11:44:46;;;;;;;8.43;7.60;;;;;;;;;;5039318;28;20655;-70
2023/09/12 11:47:13;;;;;;;8.60;7.53;;;;;;;;;;5055332;28;20200;-72
2023/09/12 11:49:41;;;;;;;10.47;7.97;;;;;;;;;;5039485;28;20194;-70
2023/09/12 11:52:12;;;;;;;8.83;7.63;;;;;;;;;;5056568;28;20171;-73
2023/09/12 11:54:44;;;;;;;8.80;7.83;;;;;;;;;;5039645;28;20219;-74
2023/09/12 11:57:14;;;;;;;9.83;7.50;;;;;;;;;;5040462;28;20186;-72
2023/09/12 11:59:45;;;;;;;9.43;7.23;;;;;;;;;;5056167;28;20193;-72
2023/09/12 12:06:11;;;;;;;8.27;7.43;;;;;;;;;;5073802;28;20173;-71
2023/09/12 12:08:39;;;;;;;9.60;7.90;;;;;;;;;;5039575;28;20235;-71
2023/09/12 12:11:11;;;;;;;9.87;7.23;;;;;;;;;;5039562;28;20233;-71
2023/09/12 12:17:45;;;;;;;8.47;6.87;;;;;;;;;;5073419;28;20205;-70
2023/09/12 12:24:13;;;;;;;9.70;7.53;;;;;;;;;;5073577;28;20176;-71
2023/09/12 12:26:43;;;;;;;7.67;6.80;;;;;;;;;;5039409;28;20269;-70
2023/09/12 12:29:10;;;;;;;8.07;7.27;;;;;;;;;;5055940;28;20610;-71
2023/09/12 12:31:37;;;;;;;7.97;6.93;;;;;;;;;;5039483;28;20194;-72
2023/09/12 12:34:05;;;;;;;6.90;6.30;;;;;;;;;;5073294;28;20568;-72
2023/09/12 12:36:53;;;;;;;7.70;6.57;;;;;;;;;;5074227;28;20183;-71
2023/09/12 12:39:25;;;;;;;9.30;7.20;;;;;;;;;;5055696;28;20286;-72
2023/09/12 12:45:55;;;;;;;8.50;7.00;;;;;;;;;;5052013;28;20238;-71
2023/09/12 12:48:33;;;;;;;17.63;7.50;;;;;;;;;;5048279;28;20171;-70
2023/09/12 12:51:12;;;;;;;7.80;6.47;;;;;;;;;;5057379;28;20194;-70
2023/09/12 12:53:39;;;;;;;7.80;6.30;;;;;;;;;;5056856;28;20242;-70
2023/09/12 12:56:12;;;;;;;7.90;6.13;;;;;;;;;;5057199;28;20542;-71
2023/09/12 12:58:39;;;;;;;7.03;5.83;;;;;;;;;;5056703;28;20178;-70
2023/09/12 13:01:06;;;;;;;7.87;6.10;;;;;;;;;;5055602;28;20529;-70
2023/09/12 13:07:35;;;;;;;9.97;6.30;;;;;;;;;;5056362;28;20620;-71
2023/09/12 13:10:04;;;;;;;7.87;6.03;;;;;;;;;;5057703;28;20221;-71
2023/09/12 13:12:32;;;;;;;6.93;6.23;;;;;;;;;;5022424;28;20191;-71
2023/09/12 13:14:59;;;;;;;8.63;5.90;;;;;;;;;;5056285;28;20301;-71
2023/09/12 13:17:26;;;;;;;7.37;5.97;;;;;;;;;;5056280;28;20254;-71
2023/09/12 13:23:48;;;;;;;11.00;6.77;;;;;;;;;;5056281;28;20146;-72
2023/09/12 13:26:15;;;;;;;7.47;6.70;;;;;;;;;;5055732;28;20198;-71
2023/09/12 13:28:42;;;;;;;8.80;7.03;;;;;;;;;;5038934;28;20194;-71
2023/09/12 13:35:09;;;;;;;10.93;6.60;;;;;;;;;;5055999;28;20555;-71
2023/09/12 13:41:36;;;;;;;11.43;6.03;;;;;;;;;;5055929;28;20652;-71
2023/09/12 13:44:05;;;;;;;11.50;6.20;;;;;;;;;;5038185;28;20191;-72
2023/09/12 13:46:33;;;;;;;10.57;6.33;;;;;;;;;;5055640;28;20179;-71
2023/09/12 13:49:03;;;;;;;7.60;5.93;;;;;;;;;;5054893;28;20229;-71
2023/09/12 13:51:31;;;;;;;9.03;6.03;;;;;;;;;;5039073;28;20221;-71
2023/09/12 13:53:59;;;;;;;7.57;6.27;;;;;;;;;;5055226;28;20190;-71
2023/09/12 13:56:26;;;;;;;12.50;6.63;;;;;;;;;;5021566;28;20190;-70
2023/09/12 13:58:54;;;;;;;10.00;6.03;;;;;;;;;;5037964;28;20194;-71
2023/09/12 14:01:23;;;;;;;7.23;5.57;;;;;;;;;;5038136;28;20197;-71
2023/09/12 14:04:01;;;;;;;9.80;6.07;;;;;;;;;;5038113;28;20579;-71
2023/09/12 14:06:46;;;;;;;13.13;6.33;;;;;;;;;;5055613;28;20151;-71
2023/09/12 14:09:15;;;;;;;12.17;6.50;;;;;;;;;;5055667;28;20222;-71
2023/09/12 14:11:51;;;;;;;9.07;5.60;;;;;;;;;;5039572;28;20629;-71
2023/09/12 14:14:18;;;;;;;12.70;6.33;;;;;;;;;;5054021;28;20191;-74
2023/09/12 14:16:47;;;;;;;13.17;6.27;;;;;;;;;;5054409;28;20182;-70
2023/09/12 14:19:15;;;;;;;7.43;5.73;;;;;;;;;;5054964;28;20186;-71
2023/09/12 14:21:44;;;;;;;11.87;6.07;;;;;;;;;;5037744;28;20336;-71
2023/09/12 14:24:14;;;;;;;10.43;5.80;;;;;;;;;;5036834;28;20294;-71
2023/09/12 14:26:42;;;;;;;10.00;6.23;;;;;;;;;;5037449;28;20278;-72
2023/09/12 14:29:11;;;;;;;11.10;5.83;;;;;;;;;;5037631;28;20179;-72
2023/09/12 14:31:49;;;;;;;9.87;6.23;;;;;;;;;;5053342;28;20288;-72
2023/09/12 14:34:18;;;;;;;9.77;5.93;;;;;;;;;;5039938;28;21384;-72
2023/09/12 14:36:47;;;;;;;9.63;6.00;;;;;;;;;;5075256;28;20186;-73
2023/09/12 14:39:15;;;;;;;10.23;5.97;;;;;;;;;;5056867;28;20536;-72
2023/09/12 14:41:43;;;;;;;11.17;5.93;;;;;;;;;;5057107;28;20213;-74
2023/09/12 14:44:12;;;;;;;12.73;6.30;;;;;;;;;;5057092;28;20201;-72
2023/09/12 14:46:39;;;;;;;11.90;6.20;;;;;;;;;;5073411;28;20197;-73
2023/09/12 14:49:07;;;;;;;9.57;5.83;;;;;;;;;;5056762;28;20182;-72
2023/09/12 14:51:36;;;;;;;10.87;5.67;;;;;;;;;;5040507;28;20289;-72
2023/09/12 14:54:05;;;;;;;8.60;5.90;;;;;;;;;;5057492;28;20185;-72
2023/09/12 14:56:34;;;;;;;8.93;6.07;;;;;;;;;;5057003;28;20186;-72
2023/09/12 14:59:03;;;;;;;10.17;5.70;;;;;;;;;;5056905;28;20188;-72
2023/09/12 15:01:30;;;;;;;9.93;6.43;;;;;;;;;;5074788;28;20533;-72
2023/09/12 15:03:57;;;;;;;10.70;6.20;;;;;;;;;;5056523;28;20190;-72
2023/09/12 15:06:25;;;;;;;11.63;6.63;;;;;;;;;;5072367;28;20208;-74
2023/09/12 15:08:53;;;;;;;8.80;5.57;;;;;;;;;;5056544;28;20625;-72
2023/09/12 15:11:21;;;;;;;11.23;6.57;;;;;;;;;;5056831;28;20198;-72
2023/09/12 15:13:48;;;;;;;8.37;6.10;;;;;;;;;;5040129;28;20222;-73
2023/09/12 15:20:17;;;;;;;11.83;7.00;;;;;;;;;;5074398;28;20204;-72
2023/09/12 15:26:44;;;;;;;9.20;6.20;;;;;;;;;;5074449;28;20177;-72
2023/09/12 15:29:14;;;;;;;10.50;6.43;;;;;;;;;;5056679;28;20217;-73
2023/09/12 15:32:02;;;;;;;13.47;6.53;;;;;;;;;;5074430;28;20186;-72
2023/09/12 15:34:34;;;;;;;11.03;6.73;;;;;;;;;;5057396;28;20189;-72
2023/09/12 15:37:15;;;;;;;13.60;6.20;;;;;;;;;;5056536;28;20194;-72
2023/09/12 15:39:52;;;;;;;10.13;6.20;;;;;;;;;;5075003;28;20181;-72
2023/09/12 15:42:38;;;;;;;12.00;6.27;;;;;;;;;;5043772;28;20263;-71
2023/09/12 15:49:05;;;;;;;9.37;6.03;;;;;;;;;;5073596;28;20157;-71
2023/09/12 15:51:33;;;;;;;10.13;6.10;;;;;;;;;;5073900;28;20267;-71
2023/09/12 15:54:00;;;;;;;13.07;6.40;;;;;;;;;;5055606;28;20206;-71
2023/09/12 15:56:27;;;;;;;10.93;6.67;;;;;;;;;;5056120;28;20214;-71
2023/09/12 15:58:55;;;;;;;16.97;6.77;;;;;;;;;;5073673;28;20625;-71
2023/09/12 16:01:24;;;;;;;13.27;6.93;;;;;;;;;;5056174;28;20629;-71
2023/09/12 16:03:51;;;;;;;16.30;7.60;;;;;;;;;;5072565;28;20186;-71
2023/09/12 16:14:18;;;;;;;12.67;7.17;;;;;;;;;;5073484;28;20148;-71
2023/09/12 16:16:45;;;;;;;11.60;6.87;;;;;;;;;;5074944;28;20180;-71
2023/09/12 16:19:12;;;;;;;14.87;7.87;;;;;;;;;;5060480;28;20216;-71
2023/09/12 16:21:43;;;;;;;17.13;7.90;;;;;;;;;;5059768;28;20287;-72
2023/09/12 16:24:29;;;;;;;22.13;7.20;;;;;;;;;;5046010;28;20178;-71
2023/09/12 16:27:00;;;;;;;27.97;8.60;;;;;;;;;;5075615;28;20630;-71
2023/09/12 16:29:30;;;;;;;29.77;8.53;;;;;;;;;;5077307;28;20167;-67
2023/09/12 16:31:57;;;;;;;53.20;11.60;;;;;;;;;;5077443;28;20297;-67
2023/09/12 16:34:25;;;;;;;58.37;12.13;;;;;;;;;;5049477;28;20182;-72
2023/09/12 16:41:10;;;;;;;234.33;31.37;;;;;;;;;;5077146;28;20188;-72
2023/09/12 16:43:40;;;;;;;228.03;28.27;;;;;;;;;;5076125;28;20190;-71
2023/09/12 16:46:08;;;;;;;75.30;15.20;;;;;;;;;;5026881;28;20285;-71
2023/09/12 16:48:36;;;;;;;44.10;11.17;;;;;;;;;;5059305;28;20300;-71
2023/09/12 16:51:03;;;;;;;84.60;15.47;;;;;;;;;;5060181;28;20208;-71
2023/09/12 16:53:35;;;;;;;33.93;10.33;;;;;;;;;;5058850;28;20691;-70
2023/09/12 16:56:10;;;;;;;26.97;9.80;;;;;;;;;;5059550;28;20613;-70
2023/09/12 16:58:38;;;;;;;29.53;10.67;;;;;;;;;;5059090;28;20208;-71
2023/09/12 17:01:05;;;;;;;37.70;10.47;;;;;;;;;;5043495;28;20178;-71
2023/09/12 17:03:40;;;;;;;30.63;10.10;;;;;;;;;;5042662;28;20281;-72
2023/09/12 17:06:24;;;;;;;32.40;10.37;;;;;;;;;;5044976;28;20271;-71
2023/09/12 17:08:52;;;;;;;29.83;10.10;;;;;;;;;;5059556;28;20313;-72
2023/09/12 17:11:37;;;;;;;26.93;10.73;;;;;;;;;;5061673;28;20568;-71
2023/09/12 17:14:05;;;;;;;32.67;11.47;;;;;;;;;;5042369;28;20185;-72
2023/09/12 17:16:34;;;;;;;34.37;11.33;;;;;;;;;;5076565;28;20183;-72
2023/09/12 17:19:03;;;;;;;30.43;12.23;;;;;;;;;;5076113;28;20272;-71
2023/09/12 17:21:33;;;;;;;32.80;12.73;;;;;;;;;;5059476;28;20251;-72
2023/09/12 17:24:01;;;;;;;27.30;12.37;;;;;;;;;;5058451;28;20190;-72
2023/09/12 17:26:29;;;;;;;27.60;11.43;;;;;;;;;;5059324;28;20264;-71
2023/09/12 17:28:55;;;;;;;26.37;11.43;;;;;;;;;;5075707;28;20269;-71
2023/09/12 17:31:23;;;;;;;42.53;11.73;;;;;;;;;;5076149;28;20193;-71
2023/09/12 17:33:50;;;;;;;69.47;14.73;;;;;;;;;;5074945;28;20187;-72
2023/09/12 17:36:17;;;;;;;64.90;13.97;;;;;;;;;;5076669;28;20604;-71
2023/09/12 17:38:44;;;;;;;47.60;11.73;;;;;;;;;;5057869;28;20190;-71
2023/09/12 17:41:11;;;;;;;42.43;11.53;;;;;;;;;;5076046;28;20186;-70
2023/09/12 17:43:39;;;;;;;51.13;11.87;;;;;;;;;;5041548;28;20243;-73
2023/09/12 17:50:01;;;;;;;48.27;12.30;;;;;;;;;;5075861;28;20674;-74
2023/09/12 17:52:33;;;;;;;62.53;12.87;;;;;;;;;;5042232;28;20206;-73
2023/09/12 17:55:00;;;;;;;53.80;11.93;;;;;;;;;;5074700;28;20181;-71
2023/09/12 18:01:20;;;;;;;39.13;12.17;;;;;;;;;;5075496;28;20153;-71
2023/09/12 18:03:47;;;;;;;49.53;12.17;;;;;;;;;;5074805;28;20537;-70
2023/09/12 18:10:09;;;;;;;32.30;11.07;;;;;;;;;;5075257;28;20216;-71
2023/09/12 18:16:36;;;;;;;30.23;12.00;;;;;;;;;;5075233;28;20173;-70
2023/09/12 18:23:16;;;;;;;25.70;12.67;;;;;;;;;;5075056;28;20165;-71
2023/09/12 18:25:43;;;;;;;28.13;13.03;;;;;;;;;;5074231;28;20178;-75
2023/09/12 18:32:12;;;;;;;29.40;12.83;;;;;;;;;;5074619;28;20240;-70
2023/09/12 18:34:39;;;;;;;25.03;13.67;;;;;;;;;;5056778;28;20261;-70
2023/09/12 18:37:23;;;;;;;29.83;13.93;;;;;;;;;;5073821;28;20162;-70
2023/09/12 18:39:54;;;;;;;24.73;13.03;;;;;;;;;;5055981;28;20514;-71
2023/09/12 18:42:22;;;;;;;24.83;13.53;;;;;;;;;;5074546;28;20621;-71
2023/09/12 18:44:49;;;;;;;21.63;13.40;;;;;;;;;;5057485;28;20209;-70
2023/09/12 18:51:16;;;;;;;27.63;14.20;;;;;;;;;;5074455;28;20300;-71
2023/09/12 18:57:44;;;;;;;34.27;15.63;;;;;;;;;;5074523;28;20263;-70
2023/09/12 19:00:15;;;;;;;47.73;18.23;;;;;;;;;;5073561;28;20178;-71
2023/09/12 19:02:43;;;;;;;58.93;16.00;;;;;;;;;;5073387;28;20190;-72
2023/09/12 19:09:10;;;;;;;44.07;17.93;;;;;;;;;;5073920;28;20244;-71
2023/09/12 19:11:40;;;;;;;40.13;18.67;;;;;;;;;;5056626;28;20240;-71
2023/09/12 19:18:01;;;;;;;44.87;18.37;;;;;;;;;;5073890;28;20669;-71
2023/09/12 19:20:28;;;;;;;48.07;19.00;;;;;;;;;;5056125;28;20174;-69
2023/09/12 19:26:55;;;;;;;35.20;18.13;;;;;;;;;;5073738;28;20207;-70
2023/09/12 19:33:22;;;;;;;33.97;17.07;;;;;;;;;;5073941;28;20622;-69
2023/09/12 19:39:48;;;;;;;35.87;16.67;;;;;;;;;;5073899;28;20520;-71
2023/09/12 19:42:16;;;;;;;34.73;16.90;;;;;;;;;;5055867;28;20189;-71
2023/09/12 19:48:36;;;;;;;34.17;16.97;;;;;;;;;;5073582;28;20226;-70
2023/09/12 19:51:03;;;;;;;38.53;17.03;;;;;;;;;;5057005;28;20225;-71
2023/09/12 19:57:30;;;;;;;44.20;17.47;;;;;;;;;;5080402;28;20260;-71
2023/09/12 19:59:57;;;;;;;40.33;17.03;;;;;;;;;;5079166;28;20208;-71
2023/09/12 20:02:43;;;;;;;32.40;16.30;;;;;;;;;;5065092;28;20224;-71
2023/09/12 20:05:10;;;;;;;39.23;17.73;;;;;;;;;;5046351;28;20293;-71
2023/09/12 20:07:37;;;;;;;41.20;18.37;;;;;;;;;;5062740;28;20227;-71
2023/09/12 20:10:07;;;;;;;35.17;17.17;;;;;;;;;;5079273;28;20328;-71
2023/09/12 20:12:34;;;;;;;32.50;17.83;;;;;;;;;;5063193;28;20206;-71
2023/09/12 20:15:01;;;;;;;35.90;17.60;;;;;;;;;;5079407;28;20263;-71
2023/09/12 20:17:28;;;;;;;32.53;17.37;;;;;;;;;;5079217;28;20182;-71